Time;durP1;ratioP1;P1;durP2;ratioP2;P2;SDS_P1;SDS_P2;PMS_P1;PMS_P2;Temp;Humidity;BMP_temperature;BMP_pressure;BME280_temperature;BME280_humidity;BME280_pressure;Samples;Min_cycle;Max_cycle;Signal;HPM_P1;HPM_P2
2024/01/25 00:00:17;;;;;;;19.80;3.53;;;;;;;6.36;100.00;99115.75;6106414;19;20006;-73
2024/01/25 00:02:17;;;;;;;13.10;3.65;;;;;;;6.27;100.00;99112.28;6113741;19;20035;-73
2024/01/25 00:04:17;;;;;;;18.80;3.92;;;;;;;6.38;100.00;99130.78;6112362;19;19991;-73
2024/01/25 00:06:17;;;;;;;16.15;3.67;;;;;;;6.30;100.00;99112.41;6112080;19;20506;-73
2024/01/25 00:08:18;;;;;;;14.40;4.47;;;;;;;6.27;100.00;99115.00;6109662;19;20113;-73
2024/01/25 00:10:18;;;;;;;10.77;2.95;;;;;;;6.25;100.00;99112.59;6113673;19;20447;-73
2024/01/25 00:12:18;;;;;;;13.25;3.55;;;;;;;6.25;100.00;99111.81;6112615;19;20018;-73
2024/01/25 00:14:19;;;;;;;10.20;3.60;;;;;;;6.26;100.00;99110.66;6113190;19;20506;-73
2024/01/25 00:16:19;;;;;;;10.88;3.67;;;;;;;6.26;100.00;99116.16;6111924;19;20002;-73
2024/01/25 00:18:19;;;;;;;13.93;4.78;;;;;;;6.27;100.00;99131.50;6111474;19;20320;-73
2024/01/25 00:20:20;;;;;;;15.55;3.60;;;;;;;6.33;100.00;99119.97;6111800;19;20006;-73
2024/01/25 00:22:20;;;;;;;16.85;4.43;;;;;;;6.39;100.00;99117.84;6112816;19;20103;-73
2024/01/25 00:24:20;;;;;;;11.52;3.10;;;;;;;6.39;100.00;99121.41;6110442;19;20049;-73
2024/01/25 00:26:21;;;;;;;9.70;3.10;;;;;;;6.35;100.00;99119.66;6111516;19;20033;-73
2024/01/25 00:28:21;;;;;;;14.77;3.55;;;;;;;6.30;100.00;99117.13;6112328;19;20014;-73
2024/01/25 00:30:21;;;;;;;14.45;3.67;;;;;;;6.28;100.00;99124.88;6112194;19;20007;-73
2024/01/25 00:32:22;;;;;;;11.80;3.55;;;;;;;6.39;100.00;99120.59;6112458;19;20015;-73
2024/01/25 00:34:22;;;;;;;12.60;4.25;;;;;;;6.29;100.00;99127.31;6111841;19;20070;-73
2024/01/25 00:36:23;;;;;;;13.38;3.22;;;;;;;6.40;100.00;99134.00;6110788;19;20410;-73
2024/01/25 00:38:24;;;;;;;13.77;3.80;;;;;;;6.41;100.00;99118.31;6110898;19;20034;-73
2024/01/25 00:40:25;;;;;;;18.58;3.55;;;;;;;6.46;100.00;99116.19;6111983;19;20010;-73
2024/01/25 00:42:26;;;;;;;15.27;3.88;;;;;;;6.39;100.00;99118.66;6112197;19;20010;-73
2024/01/25 00:44:27;;;;;;;12.10;3.60;;;;;;;6.36;100.00;99127.56;6111764;19;20770;-73
2024/01/25 00:46:28;;;;;;;13.57;3.63;;;;;;;6.34;100.00;99120.78;6110530;19;20463;-73
2024/01/25 00:48:28;;;;;;;13.55;4.10;;;;;;;6.43;100.00;99127.03;6111799;19;20017;-73
2024/01/25 00:50:29;;;;;;;13.32;3.58;;;;;;;6.46;100.00;99121.69;6111651;19;20465;-73
2024/01/25 00:52:30;;;;;;;19.15;3.88;;;;;;;6.45;100.00;99131.06;6112104;19;20002;-73
2024/01/25 00:54:30;;;;;;;15.40;3.97;;;;;;;6.48;100.00;99126.84;6111982;19;20014;-73
2024/01/25 00:56:31;;;;;;;21.08;4.00;;;;;;;6.47;100.00;99123.28;6112381;19;20033;-73
2024/01/25 00:58:32;;;;;;;17.55;3.97;;;;;;;6.54;100.00;99124.66;6111201;19;20393;-73
2024/01/25 01:00:32;;;;;;;15.68;3.50;;;;;;;6.50;100.00;99151.25;6111145;19;20010;-73
2024/01/25 01:02:39;;;;;;;13.60;3.85;;;;;;;6.42;100.00;99134.47;6111076;19;20003;-73
2024/01/25 01:04:40;;;;;;;13.65;3.95;;;;;;;6.42;100.00;99141.91;6111693;19;20011;-73
2024/01/25 01:06:41;;;;;;;18.85;4.38;;;;;;;6.45;100.00;99150.31;6111170;19;20675;-73
2024/01/25 01:08:41;;;;;;;16.25;3.45;;;;;;;6.43;100.00;99146.25;6110838;19;20090;-73
2024/01/25 01:10:42;;;;;;;13.60;4.20;;;;;;;6.33;100.00;99149.41;6110654;19;20451;-73
2024/01/25 01:12:42;;;;;;;16.10;3.38;;;;;;;6.37;100.00;99153.09;6109788;19;20003;-73
2024/01/25 01:14:43;;;;;;;12.50;3.35;;;;;;;6.38;100.00;99157.47;6111047;19;20021;-73
2024/01/25 01:16:43;;;;;;;12.48;4.05;;;;;;;6.37;100.00;99158.59;6110546;19;20021;-73
2024/01/25 01:18:43;;;;;;;13.55;3.55;;;;;;;6.26;100.00;99151.88;6111866;19;20014;-73
2024/01/25 01:20:44;;;;;;;13.00;3.97;;;;;;;6.24;100.00;99146.72;6110727;19;20040;-73
2024/01/25 01:22:44;;;;;;;13.13;3.63;;;;;;;6.22;100.00;99156.44;6110062;19;20010;-73
2024/01/25 01:24:45;;;;;;;12.52;3.78;;;;;;;6.14;100.00;99152.63;6112547;19;20014;-73
2024/01/25 01:26:46;;;;;;;13.68;3.97;;;;;;;6.12;100.00;99154.88;6110145;19;20246;-73
2024/01/25 01:28:46;;;;;;;12.13;3.45;;;;;;;6.23;100.00;99163.56;6111020;19;20442;-73
2024/01/25 01:30:47;;;;;;;16.15;4.10;;;;;;;6.22;100.00;99164.69;6109966;19;20356;-73
2024/01/25 01:32:47;;;;;;;15.60;4.10;;;;;;;6.13;100.00;99159.25;6112152;19;20014;-73
2024/01/25 01:34:47;;;;;;;18.10;4.03;;;;;;;6.04;100.00;99155.72;6109902;19;20017;-73
2024/01/25 01:36:48;;;;;;;17.85;5.10;;;;;;;5.96;100.00;99159.31;6109218;19;20045;-73
2024/01/25 01:38:48;;;;;;;12.68;3.63;;;;;;;5.91;100.00;99160.31;6109981;19;20120;-73
2024/01/25 01:40:48;;;;;;;15.27;3.85;;;;;;;5.95;100.00;99154.97;6110659;19;20344;-73
2024/01/25 01:42:49;;;;;;;9.60;3.58;;;;;;;5.81;100.00;99153.22;6110302;19;20003;-73
2024/01/25 01:44:51;;;;;;;12.23;4.25;;;;;;;5.75;100.00;99149.03;6110754;19;20006;-73
2024/01/25 01:46:52;;;;;;;9.25;3.97;;;;;;;5.71;100.00;99139.88;6108851;19;20651;-73
2024/01/25 01:48:52;;;;;;;16.05;3.63;;;;;;;5.77;100.00;99146.78;6109602;19;20002;-73
2024/01/25 01:50:52;;;;;;;12.95;3.63;;;;;;;5.71;100.00;99150.84;6109189;19;20017;-73
2024/01/25 01:52:53;;;;;;;11.45;3.97;;;;;;;5.67;100.00;99135.38;6111032;19;20054;-73
2024/01/25 01:54:53;;;;;;;15.70;4.38;;;;;;;5.61;100.00;99132.78;6109041;19;20032;-73
2024/01/25 01:56:55;;;;;;;15.55;3.97;;;;;;;5.56;100.00;99138.47;6107990;19;20026;-73
2024/01/25 01:59:00;;;;;;;18.23;4.20;;;;;;;5.59;100.00;99146.03;6109600;19;20023;-73
2024/01/25 02:01:02;;;;;;;14.98;3.88;;;;;;;5.65;100.00;99143.94;6110420;19;20022;-73
2024/01/25 02:03:03;;;;;;;13.45;3.55;;;;;;;5.62;100.00;99136.34;6109260;19;20040;-73
2024/01/25 02:05:03;;;;;;;15.40;3.88;;;;;;;5.60;100.00;99146.84;6108775;19;20463;-73
2024/01/25 02:07:04;;;;;;;11.68;3.58;;;;;;;5.58;100.00;99141.69;6110761;19;20617;-73
2024/01/25 02:09:04;;;;;;;11.50;3.47;;;;;;;5.60;100.00;99133.91;6111033;19;20459;-73
2024/01/25 02:11:05;;;;;;;15.02;3.58;;;;;;;5.58;100.00;99127.97;6110362;19;20326;-73
2024/01/25 02:13:05;;;;;;;15.60;3.90;;;;;;;5.66;100.00;99120.84;6111023;19;20022;-73
2024/01/25 02:15:06;;;;;;;12.02;4.20;;;;;;;5.71;100.00;99128.06;6110125;19;20010;-73
2024/01/25 02:17:06;;;;;;;10.98;3.95;;;;;;;5.74;100.00;99132.91;6110834;19;20003;-73
2024/01/25 02:19:06;;;;;;;17.15;4.40;;;;;;;5.74;100.00;99127.41;6107572;19;20009;-73
2024/01/25 02:21:07;;;;;;;12.32;3.50;;;;;;;5.73;100.00;99128.56;6109636;19;19999;-73
2024/01/25 02:23:07;;;;;;;18.15;4.00;;;;;;;5.65;100.00;99121.97;6109141;19;20007;-73
2024/01/25 02:25:07;;;;;;;18.02;4.65;;;;;;;5.73;100.00;99131.31;6108776;19;20337;-73
2024/01/25 02:27:08;;;;;;;23.30;5.22;;;;;;;5.68;100.00;99128.72;6110391;19;20007;-73
2024/01/25 02:29:09;;;;;;;17.08;3.90;;;;;;;5.57;100.00;99123.63;6110054;19;20606;-73
2024/01/25 02:31:09;;;;;;;21.80;5.80;;;;;;;5.48;100.00;99128.34;6110441;19;20003;-73
2024/01/25 02:33:10;;;;;;;15.95;3.90;;;;;;;5.45;100.00;99123.47;6109694;19;20722;-73
2024/01/25 02:35:10;;;;;;;9.85;3.67;;;;;;;5.44;100.00;99123.81;6109697;19;20035;-73
2024/01/25 02:37:12;;;;;;;13.32;3.72;;;;;;;5.49;100.00;99131.88;6109712;19;20003;-73
2024/01/25 02:39:12;;;;;;;15.75;4.00;;;;;;;5.40;100.00;99131.09;6109980;19;20010;-73
2024/01/25 02:41:12;;;;;;;14.10;3.67;;;;;;;5.46;100.00;99130.59;6110125;19;20533;-73
2024/01/25 02:43:13;;;;;;;16.75;3.53;;;;;;;5.44;100.00;99126.56;6110883;19;20007;-73
2024/01/25 02:45:13;;;;;;;16.88;4.10;;;;;;;5.40;100.00;99129.16;6108525;19;20007;-73
2024/01/25 02:47:15;;;;;;;15.60;4.32;;;;;;;5.36;100.00;99122.72;6100435;19;21687;-73
2024/01/25 02:49:15;;;;;;;11.95;3.65;;;;;;;5.30;100.00;99130.34;6109866;19;20002;-73
2024/01/25 02:51:16;;;;;;;25.05;4.53;;;;;;;5.26;100.00;99126.63;6110015;19;20013;-73
2024/01/25 02:53:16;;;;;;;14.02;3.92;;;;;;;5.22;100.00;99136.66;6109444;19;20070;-73
2024/01/25 02:55:19;;;;;;;16.95;4.55;;;;;;;5.27;100.00;99141.13;6108528;19;20026;-73
2024/01/25 02:57:19;;;;;;;18.40;4.15;;;;;;;5.27;100.00;99133.72;6109905;19;20003;-73
2024/01/25 02:59:19;;;;;;;18.70;4.85;;;;;;;5.23;100.00;99132.78;6109139;19;20121;-73
2024/01/25 03:01:20;;;;;;;16.40;3.40;;;;;;;5.23;100.00;99121.78;6108898;19;20427;-73
2024/01/25 03:03:20;;;;;;;15.82;5.45;;;;;;;5.21;100.00;99118.56;6108527;19;20006;-73
2024/01/25 03:05:20;;;;;;;13.82;3.53;;;;;;;5.21;100.00;99134.19;6107354;19;20026;-73
2024/01/25 03:07:21;;;;;;;14.70;4.07;;;;;;;5.28;100.00;99146.28;6109570;19;20010;-73
2024/01/25 03:09:23;;;;;;;13.85;3.40;;;;;;;5.35;100.00;99149.34;6108889;19;20331;-73
2024/01/25 03:11:23;;;;;;;14.60;3.58;;;;;;;5.33;100.00;99151.63;6109750;19;20015;-73
2024/01/25 03:13:24;;;;;;;15.77;3.90;;;;;;;5.35;100.00;99162.25;6108681;19;20007;-73
2024/01/25 03:15:24;;;;;;;11.27;3.10;;;;;;;5.50;100.00;99177.41;6107829;19;20364;-73
2024/01/25 03:17:25;;;;;;;17.35;5.65;;;;;;;5.46;100.00;99173.69;6108437;19;20036;-73
2024/01/25 03:19:27;;;;;;;10.13;4.00;;;;;;;5.47;100.00;99178.88;6109175;19;20455;-73
2024/01/25 03:21:27;;;;;;;15.25;4.40;;;;;;;5.56;100.00;99195.31;6108625;19;20481;-73
2024/01/25 03:23:27;;;;;;;17.92;4.47;;;;;;;5.53;100.00;99195.94;6107546;19;20106;-73
2024/01/25 03:25:28;;;;;;;14.23;4.30;;;;;;;5.56;100.00;99207.09;6106790;19;20099;-73
2024/01/25 03:27:28;;;;;;;22.35;4.28;;;;;;;5.61;100.00;99214.34;6108781;19;20003;-73
2024/01/25 03:29:28;;;;;;;20.80;4.07;;;;;;;5.63;100.00;99212.91;6108427;19;20003;-73
2024/01/25 03:31:29;;;;;;;17.90;3.72;;;;;;;5.57;100.00;99227.13;6108750;19;20003;-73
2024/01/25 03:33:29;;;;;;;14.73;3.85;;;;;;;5.50;100.00;99218.56;6107854;19;20012;-73
2024/01/25 03:35:29;;;;;;;13.85;4.30;;;;;;;5.55;100.00;99224.72;6105552;19;20006;-73
2024/01/25 03:37:30;;;;;;;12.75;4.20;;;;;;;5.56;100.00;99220.03;6109235;19;20294;-73
2024/01/25 03:39:30;;;;;;;15.38;4.60;;;;;;;5.56;100.00;99222.75;6108212;19;20006;-73
2024/01/25 03:41:30;;;;;;;18.25;4.13;;;;;;;5.49;100.00;99217.78;6107440;19;20006;-73
2024/01/25 03:43:31;;;;;;;15.80;3.88;;;;;;;5.49;100.00;99219.72;6108489;19;20005;-73
2024/01/25 03:45:32;;;;;;;18.02;5.72;;;;;;;5.38;100.00;99216.50;6106608;19;20013;-73
2024/01/25 03:47:32;;;;;;;15.00;3.70;;;;;;;5.29;100.00;99201.97;6106100;19;20455;-73
2024/01/25 03:49:33;;;;;;;19.98;4.57;;;;;;;5.18;100.00;99209.75;6100797;19;20010;-73
2024/01/25 03:51:33;;;;;;;12.15;3.70;;;;;;;5.22;100.00;99232.66;6101657;19;20007;-73
2024/01/25 03:53:33;;;;;;;23.77;4.72;;;;;;;5.16;100.00;99233.97;6100483;19;20009;-73
2024/01/25 03:55:34;;;;;;;13.35;3.72;;;;;;;5.21;100.00;99247.53;6100134;19;20034;-73
2024/01/25 03:57:36;;;;;;;12.50;4.05;;;;;;;5.27;100.00;99245.41;6101917;19;20067;-73
2024/01/25 03:59:36;;;;;;;14.75;4.22;;;;;;;5.14;100.00;99238.97;6099848;19;20006;-73
2024/01/25 04:01:47;;;;;;;10.45;4.13;;;;;;;5.06;100.00;99237.03;6100845;19;20017;-73
2024/01/25 04:03:47;;;;;;;15.27;3.90;;;;;;;5.05;100.00;99249.94;6101001;19;20634;-73
2024/01/25 04:05:47;;;;;;;15.93;3.97;;;;;;;4.98;100.00;99259.78;6099940;19;20007;-73
2024/01/25 04:07:48;;;;;;;14.30;3.90;;;;;;;4.92;100.00;99248.16;6101294;19;20006;-73
2024/01/25 04:09:50;;;;;;;17.33;4.15;;;;;;;5.00;100.00;99258.31;6099748;19;20086;-73
2024/01/25 04:11:50;;;;;;;16.73;4.30;;;;;;;4.97;100.00;99252.69;6099762;19;20111;-73
2024/01/25 04:13:50;;;;;;;14.57;4.53;;;;;;;5.00;100.00;99261.06;6099597;19;20002;-73
2024/01/25 04:15:51;;;;;;;19.50;4.47;;;;;;;4.93;100.00;99266.22;6098786;19;20020;-73
2024/01/25 04:17:53;;;;;;;18.90;4.88;;;;;;;4.97;100.00;99269.13;6100141;19;20016;-73
2024/01/25 04:19:53;;;;;;;13.95;4.18;;;;;;;5.06;100.00;99268.00;6100342;19;20451;-73
2024/01/25 04:21:53;;;;;;;20.35;5.30;;;;;;;5.17;100.00;99263.00;6099919;19;20006;-73
2024/01/25 04:23:53;;;;;;;19.77;5.00;;;;;;;5.22;100.00;99267.53;6100183;19;20078;-73
2024/01/25 04:25:55;;;;;;;18.15;5.15;;;;;;;5.21;100.00;99260.41;6098325;19;20009;-73
2024/01/25 04:27:55;;;;;;;14.75;4.45;;;;;;;5.14;100.00;99271.09;6099969;19;20523;-73
2024/01/25 04:29:56;;;;;;;20.50;4.10;;;;;;;5.12;100.00;99265.88;6099709;19;20028;-73
2024/01/25 04:31:56;;;;;;;20.95;5.35;;;;;;;5.14;100.00;99279.31;6100253;19;20402;-73
2024/01/25 04:33:56;;;;;;;19.10;4.60;;;;;;;5.06;100.00;99272.69;6099248;19;20011;-73
2024/01/25 04:35:56;;;;;;;14.80;4.38;;;;;;;5.06;100.00;99278.97;6098960;19;20288;-73
2024/01/25 04:37:57;;;;;;;11.80;4.45;;;;;;;5.09;100.00;99274.78;6099284;19;20017;-73
2024/01/25 04:39:57;;;;;;;20.27;5.05;;;;;;;5.19;100.00;99284.63;6099912;19;20007;-73
2024/01/25 04:41:57;;;;;;;16.42;3.85;;;;;;;5.14;100.00;99282.84;6099925;19;20003;-73
2024/01/25 04:43:58;;;;;;;9.25;4.15;;;;;;;5.25;100.00;99275.09;6098594;19;20006;-73
2024/01/25 04:45:58;;;;;;;14.23;4.00;;;;;;;5.26;100.00;99272.03;6098404;19;20497;-73
2024/01/25 04:47:58;;;;;;;21.42;4.68;;;;;;;5.24;100.00;99273.50;6106649;19;20326;-73
2024/01/25 04:49:59;;;;;;;15.90;3.60;;;;;;;5.40;100.00;99276.56;6112219;19;20013;-73
2024/01/25 04:51:59;;;;;;;13.88;4.40;;;;;;;5.36;100.00;99265.41;6112316;19;20022;-73
2024/01/25 04:53:59;;;;;;;16.73;4.18;;;;;;;5.32;100.00;99256.22;6112407;19;20343;-73
2024/01/25 04:56:00;;;;;;;14.82;4.10;;;;;;;5.37;100.00;99264.25;6110646;19;20026;-73
2024/01/25 04:58:00;;;;;;;13.25;4.40;;;;;;;5.43;100.00;99268.47;6110955;19;20349;-73
2024/01/25 05:00:00;;;;;;;14.80;4.78;;;;;;;5.45;100.00;99259.91;6111672;19;20034;-73
2024/01/25 05:02:01;;;;;;;13.63;4.72;;;;;;;5.43;100.00;99248.44;6112770;19;20010;-73
2024/01/25 05:04:01;;;;;;;14.95;4.38;;;;;;;5.42;100.00;99264.13;6111135;19;19998;-73
2024/01/25 05:06:01;;;;;;;13.02;5.07;;;;;;;5.39;100.00;99264.78;6111349;19;19999;-73
2024/01/25 05:08:02;;;;;;;19.23;4.05;;;;;;;5.41;100.00;99256.22;6110572;19;20018;-73
2024/01/25 05:10:02;;;;;;;20.02;5.32;;;;;;;5.36;100.00;99279.94;6111649;19;20002;-73
2024/01/25 05:12:03;;;;;;;14.75;4.20;;;;;;;5.39;100.00;99267.50;6110693;19;20393;-73
2024/01/25 05:14:03;;;;;;;19.50;4.18;;;;;;;5.30;100.00;99275.75;6110937;19;20027;-73
2024/01/25 05:16:04;;;;;;;15.05;4.35;;;;;;;5.27;100.00;99270.91;6109450;19;20022;-73
2024/01/25 05:18:05;;;;;;;16.65;4.57;;;;;;;5.16;100.00;99279.78;6110363;19;20006;-73
2024/01/25 05:20:06;;;;;;;13.97;4.63;;;;;;;5.18;100.00;99286.56;6110623;19;20034;-73
2024/01/25 05:22:07;;;;;;;11.25;3.60;;;;;;;5.22;100.00;99278.50;6112144;19;20007;-73
2024/01/25 05:24:09;;;;;;;13.32;4.75;;;;;;;5.15;100.00;99291.91;6110812;19;20007;-73
2024/01/25 05:26:10;;;;;;;18.98;4.60;;;;;;;5.21;100.00;99296.91;6110336;19;20009;-73
2024/01/25 05:28:10;;;;;;;10.52;4.28;;;;;;;5.16;100.00;99309.97;6109326;19;20302;-73
2024/01/25 05:30:11;;;;;;;20.27;4.45;;;;;;;5.13;100.00;99333.38;6111608;19;20006;-73
2024/01/25 05:32:12;;;;;;;12.57;4.22;;;;;;;5.09;100.00;99332.38;6110743;19;20015;-73
2024/01/25 05:34:12;;;;;;;15.65;4.07;;;;;;;5.07;100.00;99331.91;6111068;19;20021;-73
2024/01/25 05:36:13;;;;;;;15.38;4.38;;;;;;;5.07;100.00;99346.41;6109639;19;20066;-73
2024/01/25 05:38:14;;;;;;;14.25;3.88;;;;;;;5.12;100.00;99348.19;6110250;19;20030;-73
2024/01/25 05:40:14;;;;;;;13.98;4.63;;;;;;;5.10;100.00;99346.91;6109789;19;20055;-73
2024/01/25 05:42:14;;;;;;;21.52;4.82;;;;;;;5.10;100.00;99358.69;6110921;19;20344;-73
2024/01/25 05:44:14;;;;;;;16.27;4.25;;;;;;;5.11;100.00;99348.50;6110558;19;20091;-73
2024/01/25 05:46:15;;;;;;;14.98;4.13;;;;;;;5.08;100.00;99347.22;6109150;19;20401;-73
2024/01/25 05:48:15;;;;;;;15.98;4.57;;;;;;;5.11;100.00;99349.31;6109009;19;20006;-73
2024/01/25 05:50:16;;;;;;;12.75;3.92;;;;;;;5.10;100.00;99344.97;6110162;19;20002;-73
2024/01/25 05:52:17;;;;;;;11.38;4.05;;;;;;;5.10;100.00;99347.72;6110535;19;20010;-73
2024/01/25 05:54:17;;;;;;;13.80;4.88;;;;;;;5.21;100.00;99346.28;6109241;19;20286;-73
2024/01/25 05:56:17;;;;;;;15.20;3.97;;;;;;;5.13;100.00;99333.38;6108995;19;20007;-73
2024/01/25 05:58:18;;;;;;;14.82;4.38;;;;;;;5.13;100.00;99332.53;6105876;19;20463;-73
2024/01/25 06:00:19;;;;;;;20.15;5.78;;;;;;;5.16;100.00;99337.41;6110362;19;20010;-73
2024/01/25 06:02:19;;;;;;;11.40;4.60;;;;;;;5.20;100.00;99341.91;6110841;19;20007;-73
2024/01/25 06:04:20;;;;;;;14.27;4.68;;;;;;;5.19;100.00;99337.56;6111388;19;20007;-73
2024/01/25 06:06:20;;;;;;;22.65;5.20;;;;;;;5.15;100.00;99331.09;6109713;19;20045;-73
2024/01/25 06:08:20;;;;;;;16.75;4.00;;;;;;;5.12;100.00;99333.66;6110901;19;20017;-73
2024/01/25 06:10:21;;;;;;;12.23;3.95;;;;;;;5.26;100.00;99337.88;6110739;19;20022;-73
2024/01/25 06:12:21;;;;;;;15.48;3.78;;;;;;;5.28;100.00;99348.53;6111580;19;20086;-73
2024/01/25 06:14:21;;;;;;;12.73;3.10;;;;;;;5.22;100.00;99352.59;6111117;19;20041;-73
2024/01/25 06:16:22;;;;;;;14.45;3.25;;;;;;;5.23;100.00;99356.94;6110394;19;20021;-73
2024/01/25 06:18:22;;;;;;;10.13;4.47;;;;;;;5.16;100.00;99359.34;6110721;19;20034;-73
2024/01/25 06:20:23;;;;;;;13.82;4.13;;;;;;;5.24;100.00;99375.00;6110417;19;20079;-73
2024/01/25 06:22:23;;;;;;;10.02;3.30;;;;;;;5.24;100.00;99370.31;6111273;19;20010;-73
2024/01/25 06:24:23;;;;;;;10.48;4.70;;;;;;;5.24;100.00;99370.31;6110652;19;20029;-73
2024/01/25 06:26:24;;;;;;;14.35;4.07;;;;;;;5.27;100.00;99372.41;6109682;19;19999;-73
2024/01/25 06:28:25;;;;;;;13.65;3.88;;;;;;;5.25;100.00;99369.19;6110042;19;20006;-73
2024/01/25 06:30:26;;;;;;;8.93;2.88;;;;;;;5.18;100.00;99368.06;6110538;19;20010;-73
2024/01/25 06:32:26;;;;;;;9.70;3.00;;;;;;;5.28;100.00;99379.53;6111150;19;20410;-73
2024/01/25 06:34:26;;;;;;;12.13;3.47;;;;;;;5.28;100.00;99386.94;6109327;19;20023;-73
2024/01/25 06:36:27;;;;;;;12.77;4.07;;;;;;;5.30;100.00;99376.47;6109656;19;20043;-73
2024/01/25 06:38:27;;;;;;;9.77;3.28;;;;;;;5.33;100.00;99390.34;6109090;19;20011;-73
2024/01/25 06:40:28;;;;;;;11.52;3.17;;;;;;;5.27;100.00;99399.84;6110951;19;20486;-73
2024/01/25 06:42:28;;;;;;;15.43;3.35;;;;;;;5.35;100.00;99411.97;6110439;19;20018;-73
2024/01/25 06:44:28;;;;;;;15.38;3.08;;;;;;;5.34;100.00;99430.38;6110507;19;20002;-73
2024/01/25 06:46:29;;;;;;;9.07;3.90;;;;;;;5.26;100.00;99413.91;6109005;19;20399;-73
2024/01/25 06:48:29;;;;;;;13.30;5.43;;;;;;;5.23;100.00;99422.78;6110210;19;20019;-73
2024/01/25 06:50:29;;;;;;;15.70;5.22;;;;;;;5.24;100.00;99422.47;6110577;19;20048;-73
2024/01/25 06:52:30;;;;;;;27.38;7.00;;;;;;;5.22;100.00;99424.72;6110174;19;20725;-73
2024/01/25 06:54:31;;;;;;;24.15;7.57;;;;;;;5.20;100.00;99443.41;6109431;19;21448;-73
2024/01/25 06:56:31;;;;;;;15.85;4.07;;;;;;;5.20;100.00;99448.09;6109589;19;20523;-73
2024/01/25 06:58:31;;;;;;;14.90;5.82;;;;;;;5.20;100.00;99437.13;6109440;19;20019;-73
2024/01/25 07:00:32;;;;;;;9.40;4.22;;;;;;;5.16;100.00;99453.44;6110044;19;20089;-73
2024/01/25 07:02:32;;;;;;;9.88;3.10;;;;;;;5.24;100.00;99443.59;6110228;19;20337;-73
2024/01/25 07:04:32;;;;;;;13.55;5.22;;;;;;;5.26;100.00;99449.56;6109420;19;20459;-73
2024/01/25 07:06:33;;;;;;;8.60;4.30;;;;;;;5.24;100.00;99449.91;6108591;19;20006;-73
2024/01/25 07:08:33;;;;;;;16.05;3.85;;;;;;;5.23;100.00;99444.72;6109210;19;20354;-73
2024/01/25 07:10:34;;;;;;;10.13;2.88;;;;;;;5.17;100.00;99443.25;6106638;19;20007;-73
2024/01/25 07:12:34;;;;;;;9.18;2.92;;;;;;;5.13;100.00;99443.09;6109688;19;20384;-73
2024/01/25 07:14:34;;;;;;;14.32;3.80;;;;;;;5.08;100.00;99435.81;6110147;19;20006;-73
2024/01/25 07:16:35;;;;;;;12.30;3.30;;;;;;;5.01;100.00;99449.19;6109132;19;20513;-73
2024/01/25 07:18:35;;;;;;;8.75;2.72;;;;;;;5.08;100.00;99457.75;6109582;19;20010;-73
2024/01/25 07:20:35;;;;;;;11.85;3.08;;;;;;;5.06;100.00;99454.53;6109362;19;20014;-73
2024/01/25 07:22:36;;;;;;;11.27;2.80;;;;;;;5.07;100.00;99453.41;6108553;19;20021;-73
2024/01/25 07:24:36;;;;;;;13.50;3.08;;;;;;;4.93;100.00;99444.47;6109929;19;20010;-73
2024/01/25 07:26:37;;;;;;;10.65;2.60;;;;;;;4.96;100.00;99453.97;6106482;19;20369;-73
2024/01/25 07:28:37;;;;;;;12.32;2.45;;;;;;;4.92;100.00;99453.81;6109200;19;20501;-72
2024/01/25 07:30:38;;;;;;;9.00;3.22;;;;;;;4.87;100.00;99456.69;6110262;19;20478;-72
2024/01/25 07:32:41;;;;;;;14.65;2.90;;;;;;;4.83;100.00;99455.72;6108472;19;20010;-72
2024/01/25 07:34:41;;;;;;;6.22;2.50;;;;;;;4.80;100.00;99461.84;6108437;19;20010;-72
2024/01/25 07:36:43;;;;;;;9.38;2.80;;;;;;;4.79;100.00;99452.78;6108381;19;20046;-72
2024/01/25 07:38:43;;;;;;;10.90;3.00;;;;;;;4.83;100.00;99463.94;6108051;19;20011;-72
2024/01/25 07:40:43;;;;;;;9.32;4.00;;;;;;;4.78;100.00;99475.03;6107089;19;20025;-72
2024/01/25 07:42:46;;;;;;;8.05;2.28;;;;;;;4.83;100.00;99483.16;6109621;19;20030;-72
2024/01/25 07:44:47;;;;;;;8.10;3.00;;;;;;;4.92;100.00;99473.03;6109209;19;20649;-72
2024/01/25 07:46:47;;;;;;;12.15;2.92;;;;;;;4.92;100.00;99480.44;6108039;19;20066;-72
2024/01/25 07:48:48;;;;;;;8.35;2.70;;;;;;;4.94;100.00;99479.00;6099117;19;20026;-74
2024/01/25 07:50:48;;;;;;;6.70;2.53;;;;;;;4.92;100.00;99484.00;6109113;19;20003;-72
2024/01/25 07:52:49;;;;;;;11.93;2.83;;;;;;;4.94;100.00;99486.41;6107768;19;20032;-72
2024/01/25 07:54:50;;;;;;;8.18;3.15;;;;;;;4.97;100.00;99485.78;6108385;19;20098;-72
2024/01/25 07:56:50;;;;;;;13.00;2.75;;;;;;;4.94;100.00;99487.22;6106848;19;20003;-72
2024/01/25 07:58:51;;;;;;;11.88;2.42;;;;;;;4.94;100.00;99491.91;6108125;19;20002;-74
2024/01/25 08:00:52;;;;;;;12.10;2.70;;;;;;;4.96;100.00;99492.38;6107283;19;20499;-72
2024/01/25 08:02:52;;;;;;;8.55;2.38;;;;;;;4.95;100.00;99499.81;6108108;19;19999;-74
2024/01/25 08:04:52;;;;;;;10.93;2.53;;;;;;;4.95;100.00;99494.31;6107618;19;20002;-73
2024/01/25 08:06:53;;;;;;;12.40;2.45;;;;;;;4.99;100.00;99509.03;6104832;19;20002;-72
2024/01/25 08:08:53;;;;;;;8.90;2.45;;;;;;;5.01;100.00;99503.22;6106365;19;20006;-72
2024/01/25 08:10:53;;;;;;;16.23;2.97;;;;;;;5.01;100.00;99498.53;6108589;19;20005;-72
2024/01/25 08:12:54;;;;;;;8.05;2.33;;;;;;;5.04;100.00;99514.34;6106184;19;20984;-72
2024/01/25 08:14:54;;;;;;;10.05;2.35;;;;;;;5.07;100.00;99511.00;6107444;19;20026;-74
2024/01/25 08:16:55;;;;;;;6.13;2.60;;;;;;;5.10;100.00;99506.00;6106667;19;20564;-73
2024/01/25 08:18:56;;;;;;;10.82;2.75;;;;;;;5.14;100.00;99505.06;6107784;19;20011;-74
2024/01/25 08:20:56;;;;;;;8.70;2.40;;;;;;;5.10;100.00;99498.56;6106849;19;20002;-73
2024/01/25 08:22:56;;;;;;;15.93;4.35;;;;;;;5.19;100.00;99520.56;6113706;19;20044;-73
2024/01/25 08:24:57;;;;;;;15.02;4.72;;;;;;;5.24;100.00;99507.50;6112920;19;20014;-74
2024/01/25 08:26:57;;;;;;;11.38;3.67;;;;;;;5.26;100.00;99508.00;6111909;19;20078;-74
2024/01/25 08:28:57;;;;;;;8.70;3.00;;;;;;;5.28;100.00;99515.91;6109512;19;20458;-74
2024/01/25 08:30:58;;;;;;;9.35;3.13;;;;;;;5.24;100.00;99510.25;6113215;19;20361;-74
2024/01/25 08:32:59;;;;;;;8.80;2.90;;;;;;;5.31;100.00;99509.81;6113207;19;20002;-74
2024/01/25 08:34:59;;;;;;;12.35;2.88;;;;;;;5.34;100.00;99514.66;6112459;19;20026;-74
2024/01/25 08:36:59;;;;;;;7.07;2.38;;;;;;;5.29;100.00;99507.34;6112519;19;20003;-74
2024/01/25 08:39:00;;;;;;;12.35;2.58;;;;;;;5.34;100.00;99509.97;6108456;19;20006;-74
2024/01/25 08:41:00;;;;;;;9.27;2.42;;;;;;;5.40;100.00;99509.84;6112497;19;20015;-74
2024/01/25 08:43:00;;;;;;;9.27;2.47;;;;;;;5.38;100.00;99523.03;6112406;19;20010;-74
2024/01/25 08:45:01;;;;;;;9.70;2.95;;;;;;;5.30;100.00;99509.00;6112088;19;20372;-74
2024/01/25 08:47:01;;;;;;;17.98;2.92;;;;;;;5.30;100.00;99511.75;6111524;19;20020;-74
2024/01/25 08:49:07;;;;;;;10.00;2.67;;;;;;;5.33;100.00;99513.84;6104645;19;20009;-73
2024/01/25 08:51:08;;;;;;;14.25;3.80;;;;;;;5.35;100.00;99511.56;6103947;19;20008;-73
2024/01/25 08:53:08;;;;;;;13.32;3.72;;;;;;;5.26;100.00;99510.75;6105492;19;20007;-73
2024/01/25 08:55:11;;;;;;;11.65;3.20;;;;;;;5.24;100.00;99521.22;6104315;19;20006;-73
2024/01/25 08:57:12;;;;;;;12.55;3.28;;;;;;;5.28;100.00;99524.94;6104556;19;20253;-73
2024/01/25 08:59:12;;;;;;;11.48;3.20;;;;;;;5.37;100.00;99527.72;6104967;19;20471;-73
2024/01/25 09:01:12;;;;;;;15.07;3.75;;;;;;;5.45;100.00;99534.38;6104789;19;20014;-73
2024/01/25 09:03:14;;;;;;;14.88;5.07;;;;;;;5.55;100.00;99540.41;6104813;19;20014;-73
2024/01/25 09:05:15;;;;;;;11.05;3.40;;;;;;;5.62;100.00;99520.69;6102663;19;20010;-73
2024/01/25 09:07:15;;;;;;;11.60;4.20;;;;;;;5.69;100.00;99529.25;6102117;19;20003;-73
2024/01/25 09:09:15;;;;;;;13.23;4.35;;;;;;;5.86;100.00;99528.47;6102107;19;20010;-74
2024/01/25 09:11:16;;;;;;;10.93;3.33;;;;;;;6.01;100.00;99527.25;6103192;19;20011;-73
2024/01/25 09:13:16;;;;;;;13.95;4.00;;;;;;;6.08;100.00;99525.63;6102922;19;20006;-73
2024/01/25 09:15:16;;;;;;;13.55;3.60;;;;;;;6.10;100.00;99528.06;6103203;19;20078;-73
2024/01/25 09:17:21;;;;;;;12.32;4.82;;;;;;;6.05;100.00;99518.03;6104506;19;20010;-73
2024/01/25 09:19:21;;;;;;;10.77;3.78;;;;;;;6.01;100.00;99532.72;6103345;19;20021;-73
2024/01/25 09:21:22;;;;;;;14.90;4.78;;;;;;;5.98;100.00;99531.44;6103664;19;20007;-73